createdAt,value
2023-01-11T00:02:12.329Z,101218.03
2023-01-11T00:04:43.053Z,101217.16
2023-01-11T00:07:12.276Z,101213.63
2023-01-11T00:09:41.522Z,101213.63
2023-01-11T00:12:12.504Z,101201.28
2023-01-11T00:14:42.087Z,101203.94
2023-01-11T00:17:11.159Z,101201.31
2023-01-11T00:19:41.916Z,101197.75
2023-01-11T00:22:10.884Z,101196.00
2023-01-11T00:24:40.319Z,101202.16
2023-01-11T00:27:09.292Z,101198.66
2023-01-11T00:29:38.889Z,101198.63
2023-01-11T00:32:07.944Z,101196.88
2023-01-11T00:34:37.606Z,101184.56
2023-01-11T00:37:08.008Z,101187.22
2023-01-11T00:39:37.672Z,101187.19
2023-01-11T00:42:24.203Z,101184.56
2023-01-11T00:45:13.457Z,101185.47
2023-01-11T00:48:01.875Z,101200.44
2023-01-11T00:50:33.379Z,101201.38
2023-01-11T00:53:04.831Z,101203.13
2023-01-11T00:55:34.929Z,101208.44
2023-01-11T00:58:04.128Z,101210.19
2023-01-11T01:00:33.519Z,101200.53
2023-01-11T01:03:02.539Z,101205.84
2023-01-11T01:05:31.845Z,101212.03
2023-01-11T01:08:02.301Z,101214.66
2023-01-11T01:10:31.712Z,101217.31
2023-01-11T01:13:18.214Z,101217.31
2023-01-11T01:15:47.996Z,101209.38
2023-01-11T01:18:17.063Z,101205.00
2023-01-11T01:20:46.576Z,101208.50
2023-01-11T01:23:16.961Z,101205.88
2023-01-11T01:25:46.364Z,101212.03
2023-01-11T01:28:15.368Z,101208.50
2023-01-11T01:30:44.638Z,101212.00
2023-01-11T01:33:13.869Z,101212.03
2023-01-11T01:35:43.166Z,101211.16
2023-01-11T01:38:12.399Z,101213.78
2023-01-11T01:40:45.323Z,101202.34
2023-01-11T01:43:15.939Z,101198.78
2023-01-11T01:45:49.941Z,101190.84
2023-01-11T01:48:23.144Z,101192.63
2023-01-11T01:50:56.786Z,101180.28
2023-01-11T01:53:31.858Z,101182.91
2023-01-11T01:56:06.456Z,101188.19
2023-01-11T01:58:41.155Z,101184.63
2023-01-11T02:01:24.433Z,101176.72
2023-01-11T02:03:56.026Z,101177.59
2023-01-11T02:06:25.766Z,101192.53
2023-01-11T02:09:01.433Z,101174.94
2023-01-11T02:11:33.645Z,101185.50
2023-01-11T02:14:07.306Z,101176.69
2023-01-11T02:16:36.873Z,101173.16
2023-01-11T02:19:08.885Z,101159.94
2023-01-11T02:21:55.727Z,101161.72
2023-01-11T02:24:57.643Z,101161.72
2023-01-11T02:27:37.230Z,101164.38
2023-01-11T02:30:21.579Z,101161.72
2023-01-11T02:32:58.607Z,101154.69
2023-01-11T02:35:40.269Z,101155.53
2023-01-11T02:38:20.930Z,101154.66
2023-01-11T02:40:55.316Z,101152.03
2023-01-11T02:43:49.624Z,101144.13
2023-01-11T02:46:29.361Z,101138.84
2023-01-11T02:49:09.790Z,101133.56
2023-01-11T02:51:44.447Z,101137.09
2023-01-11T02:54:18.660Z,101129.16
2023-01-11T02:56:51.261Z,101135.34
2023-01-11T02:59:24.332Z,101123.00
2023-01-11T03:01:56.114Z,101120.41
2023-01-11T03:04:29.892Z,101121.28
2023-01-11T03:07:15.157Z,101118.63
2023-01-11T03:09:57.369Z,101121.25
2023-01-11T03:12:59.671Z,101114.22
2023-01-11T03:15:46.730Z,101115.13
2023-01-11T03:18:29.449Z,101110.75
2023-01-11T03:21:12.565Z,101102.84
2023-01-11T03:23:49.978Z,101097.53
2023-01-11T03:26:28.016Z,101082.56
2023-01-11T03:29:09.859Z,101082.63
2023-01-11T03:31:47.515Z,101083.47
2023-01-11T03:34:24.804Z,101090.53
2023-01-11T03:37:00.678Z,101087.91
2023-01-11T03:39:35.150Z,101077.34
2023-01-11T03:42:08.328Z,101068.53
2023-01-11T03:44:43.747Z,101060.63
2023-01-11T03:47:16.882Z,101063.28
2023-01-11T03:49:51.456Z,101055.34
2023-01-11T03:52:26.186Z,101050.94
2023-01-11T03:54:57.531Z,101049.22
2023-01-11T03:57:32.208Z,101040.41
2023-01-11T04:00:01.660Z,101044.81
2023-01-11T04:02:37.558Z,101036.91
2023-01-11T04:05:09.427Z,101035.16
2023-01-11T04:07:39.194Z,101035.16
2023-01-11T04:10:09.304Z,101032.53
2023-01-11T04:12:38.721Z,101017.53
2023-01-11T04:15:09.487Z,101026.38
2023-01-11T04:17:38.829Z,101014.97
2023-01-11T04:20:11.025Z,101014.09
2023-01-11T04:22:40.566Z,101014.09
2023-01-11T04:25:10.139Z,101007.91
2023-01-11T04:27:39.544Z,101006.19
2023-01-11T04:30:09.882Z,100995.63
2023-01-11T04:32:39.364Z,101002.66
2023-01-11T04:35:10.685Z,101002.66
2023-01-11T04:37:40.136Z,100995.63
2023-01-11T04:40:10.652Z,100990.38
2023-01-11T04:42:39.182Z,100990.41
2023-01-11T04:45:09.030Z,100987.75
2023-01-11T04:47:38.453Z,100988.63
2023-01-11T04:50:11.854Z,100984.25
2023-01-11T04:52:41.949Z,100985.13
2023-01-11T04:55:11.372Z,100980.75
2023-01-11T04:57:40.824Z,100981.63
2023-01-11T05:00:11.689Z,100980.75
2023-01-11T05:02:41.781Z,100973.72
2023-01-11T05:05:13.106Z,100967.56
2023-01-11T05:07:42.573Z,100960.56
2023-01-11T05:10:12.507Z,100972.00
2023-01-11T05:12:41.892Z,100967.59
2023-01-11T05:15:11.686Z,100969.38
2023-01-11T05:17:41.080Z,100967.59
2023-01-11T05:20:13.072Z,100959.69
2023-01-11T05:22:42.550Z,100950.03
2023-01-11T05:25:11.785Z,100952.69
2023-01-11T05:27:41.204Z,100943.88
2023-01-11T05:30:11.949Z,100943.88
2023-01-11T05:32:42.230Z,100949.19
2023-01-11T05:35:12.926Z,100939.50
2023-01-11T05:37:42.323Z,100939.50
2023-01-11T05:40:12.764Z,100936.91
2023-01-11T05:42:42.221Z,100936.91
2023-01-11T05:45:29.105Z,100935.13
2023-01-11T05:47:58.895Z,100924.59
2023-01-11T05:50:29.502Z,100925.47
2023-01-11T05:53:00.832Z,100908.78
2023-01-11T05:55:29.998Z,100903.50
2023-01-11T05:57:59.344Z,100907.00
2023-01-11T06:00:29.086Z,100897.38
2023-01-11T06:02:58.539Z,100892.09
2023-01-11T06:05:29.243Z,100889.44
2023-01-11T06:07:58.495Z,100886.78
2023-01-11T06:10:27.460Z,100889.44
2023-01-11T06:13:17.001Z,100892.06
2023-01-11T06:15:46.124Z,100885.94
2023-01-11T06:18:15.606Z,100888.59
2023-01-11T06:20:49.803Z,100887.69
2023-01-11T06:23:19.364Z,100886.78
2023-01-11T06:25:48.665Z,100885.94
2023-01-11T06:28:18.302Z,100885.94
2023-01-11T06:30:53.897Z,100884.19
2023-01-11T06:33:25.345Z,100890.31
2023-01-11T06:35:56.844Z,100878.03
2023-01-11T06:38:27.216Z,100889.44
2023-01-11T06:40:58.013Z,100879.75
2023-01-11T06:43:29.187Z,100883.28
2023-01-11T06:45:59.523Z,100872.72
2023-01-11T06:48:29.515Z,100883.25
2023-01-11T06:51:00.829Z,100880.59
2023-01-11T06:53:30.444Z,100871.78
2023-01-11T06:56:00.111Z,100867.34
2023-01-11T06:58:29.936Z,100862.91
2023-01-11T07:00:59.699Z,100874.31
2023-01-11T07:03:29.442Z,100872.56
2023-01-11T07:06:00.606Z,100865.50
2023-01-11T07:08:30.201Z,100867.22
2023-01-11T07:10:59.268Z,100864.56
2023-01-11T07:13:28.780Z,100868.09
2023-01-11T07:15:59.490Z,100867.16
2023-01-11T07:18:31.660Z,100860.97
2023-01-11T07:21:02.712Z,100861.81
2023-01-11T07:23:32.098Z,100858.25
2023-01-11T07:26:01.162Z,100864.41
2023-01-11T07:28:30.850Z,100860.88
2023-01-11T07:31:00.277Z,100862.59
2023-01-11T07:33:30.018Z,100865.19
2023-01-11T07:36:00.791Z,100857.28
2023-01-11T07:38:31.793Z,100864.25
2023-01-11T07:41:00.759Z,100865.06
2023-01-11T07:43:29.130Z,100866.84
2023-01-11T07:45:58.736Z,100866.84
2023-01-11T07:48:27.871Z,100864.13
2023-01-11T07:50:57.287Z,100857.06
2023-01-11T07:53:26.653Z,100854.44
2023-01-11T07:55:58.462Z,100843.75
2023-01-11T07:58:27.891Z,100846.34
2023-01-11T08:01:00.236Z,100843.66
2023-01-11T08:03:29.782Z,100833.91
2023-01-11T08:05:58.942Z,100819.78
2023-01-11T08:08:28.380Z,100824.19
2023-01-11T08:11:12.578Z,100835.69
2023-01-11T08:13:59.455Z,100832.06
2023-01-11T08:16:28.538Z,100825.00
2023-01-11T08:18:58.081Z,100828.47
2023-01-11T08:21:27.159Z,100824.00
2023-01-11T08:23:57.146Z,100831.91
2023-01-11T08:26:28.709Z,100833.63
2023-01-11T08:28:58.276Z,100824.75
2023-01-11T08:31:27.625Z,100833.53
2023-01-11T08:33:57.159Z,100826.47
2023-01-11T08:36:27.516Z,100829.09
2023-01-11T08:38:57.637Z,100822.88
2023-01-11T08:41:28.139Z,100821.97
2023-01-11T08:43:57.871Z,100819.28
2023-01-11T08:46:27.113Z,100829.81
2023-01-11T08:48:56.540Z,100817.50
2023-01-11T08:51:25.470Z,100822.72
2023-01-11T08:53:55.310Z,100822.69
2023-01-11T08:56:24.426Z,100824.38
2023-01-11T08:58:55.050Z,100820.84
2023-01-11T09:01:24.143Z,100821.69
2023-01-11T09:03:53.397Z,100818.09
2023-01-11T09:06:22.619Z,100815.47
2023-01-11T09:08:51.998Z,100810.16
2023-01-11T09:11:39.236Z,100811.81
2023-01-11T09:14:10.124Z,100811.72
2023-01-11T09:16:39.265Z,100812.53
2023-01-11T09:19:08.543Z,100803.66
2023-01-11T09:21:37.640Z,100800.13
2023-01-11T09:24:07.634Z,100798.34
2023-01-11T09:26:38.322Z,100795.63
2023-01-11T09:29:09.083Z,100787.66
2023-01-11T09:31:38.341Z,100782.34
2023-01-11T09:34:10.923Z,100777.88
2023-01-11T09:36:41.001Z,100769.91
2023-01-11T09:39:14.585Z,100773.31
2023-01-11T09:42:00.944Z,100768.88
2023-01-11T09:44:33.978Z,100766.19
2023-01-11T09:47:13.882Z,100752.88
2023-01-11T09:49:50.957Z,100752.75
2023-01-11T09:52:29.363Z,100752.72
2023-01-11T09:54:59.897Z,100737.59
2023-01-11T09:57:47.572Z,100751.69
2023-01-11T10:00:28.998Z,100749.00
2023-01-11T10:03:30.872Z,100740.94
2023-01-11T10:06:10.268Z,100734.72
2023-01-11T10:18:22.928Z,100714.19
2023-01-11T10:18:32.231Z,100693.81
2023-01-11T10:21:11.076Z,100699.09
2023-01-11T10:23:50.409Z,100687.56
2023-01-11T10:26:29.184Z,100693.72
2023-01-11T10:29:22.386Z,100691.97
2023-01-11T10:32:11.114Z,100685.72
2023-01-11T10:34:59.636Z,100682.16
2023-01-11T10:37:59.796Z,100694.41
2023-01-11T10:40:39.952Z,100683.75
2023-01-11T10:43:13.782Z,100682.88
2023-01-11T10:45:49.875Z,100674.91
2023-01-11T10:48:25.433Z,100661.59
2023-01-11T10:51:06.583Z,100671.28
2023-01-11T10:53:40.550Z,100670.38
2023-01-11T10:56:22.799Z,100663.28
2023-01-11T10:59:07.643Z,100665.00
2023-01-11T11:01:54.337Z,100664.03
2023-01-11T11:04:40.841Z,100668.34
2023-01-11T11:07:19.760Z,100655.97
2023-01-11T11:09:59.613Z,100646.34
2023-01-11T11:12:32.807Z,100652.47
2023-01-11T11:15:10.208Z,100655.06
2023-01-11T11:17:41.466Z,100646.16
2023-01-11T11:20:15.429Z,100654.13
2023-01-11T11:22:46.492Z,100655.84
2023-01-11T11:25:19.625Z,100645.19
2023-01-11T11:27:52.478Z,100637.28
2023-01-11T11:30:30.601Z,100631.88
2023-01-11T11:33:02.980Z,100631.03
2023-01-11T11:35:40.911Z,100618.66
2023-01-11T11:38:22.485Z,100611.50
2023-01-11T11:41:04.997Z,100605.25
2023-01-11T11:43:35.325Z,100597.25
2023-01-11T11:46:06.567Z,100585.72
2023-01-11T11:48:36.946Z,100582.19
2023-01-11T11:51:11.690Z,100568.06
2023-01-11T11:53:47.131Z,100552.13
2023-01-11T11:56:21.255Z,100558.44
2023-01-11T11:58:51.334Z,100551.38
2023-01-11T12:01:31.044Z,100546.03
2023-01-11T12:04:03.053Z,100538.94
2023-01-11T12:06:32.907Z,100540.72
2023-01-11T12:09:05.181Z,100541.56
2023-01-11T12:11:38.212Z,100528.19
2023-01-11T12:14:18.279Z,100527.34
2023-01-11T12:16:48.415Z,100528.34
2023-01-11T12:19:29.474Z,100523.13
2023-01-11T12:22:18.304Z,100512.53
2023-01-11T12:25:03.429Z,100522.16
2023-01-11T12:27:43.858Z,100517.81
2023-01-11T12:30:25.768Z,100514.34
2023-01-11T12:33:22.945Z,100512.53
2023-01-11T12:36:03.308Z,100511.56
2023-01-11T12:38:47.152Z,100508.78
2023-01-11T12:41:50.211Z,100502.81
2023-01-11T12:44:48.756Z,100511.69
2023-01-11T12:47:43.997Z,100506.34
2023-01-11T12:50:19.824Z,100498.28
2023-01-11T12:53:05.049Z,100502.81
2023-01-11T12:55:50.347Z,100507.22
2023-01-11T12:58:29.776Z,100504.56
2023-01-11T13:01:13.772Z,100507.22
2023-01-11T13:04:20.270Z,100505.41
2023-01-11T13:06:59.880Z,100501.03
2023-01-11T13:09:35.723Z,100493.13
2023-01-11T13:12:11.728Z,100489.59
2023-01-11T13:15:02.169Z,100487.16
2023-01-11T13:17:52.480Z,100484.53
2023-01-11T13:20:30.900Z,100480.06
2023-01-11T13:23:05.569Z,100490.56
2023-01-11T13:25:39.548Z,100483.41
2023-01-11T13:28:24.396Z,100492.41
2023-01-11T13:30:56.260Z,100473.94
2023-01-11T13:33:31.126Z,100483.63
2023-01-11T13:36:15.084Z,100485.34
2023-01-11T13:38:57.671Z,100486.28
2023-01-11T13:41:32.927Z,100485.22
2023-01-11T13:44:07.519Z,100479.16
2023-01-11T13:47:06.265Z,100478.97
2023-01-11T13:49:52.769Z,100471.91
2023-01-11T13:52:28.913Z,100474.50
2023-01-11T13:55:07.222Z,100470.97
2023-01-11T13:57:47.804Z,100473.69
2023-01-11T14:00:25.357Z,100476.38
2023-01-11T14:03:04.478Z,100478.31
2023-01-11T14:05:42.783Z,100477.41
2023-01-11T14:08:43.739Z,100468.53
2023-01-11T14:11:22.753Z,100473.78
2023-01-11T14:14:18.031Z,100472.84
2023-01-11T14:17:20.807Z,100465.78
2023-01-11T14:19:58.238Z,100463.22
2023-01-11T14:22:37.439Z,100461.34
2023-01-11T14:25:16.112Z,100445.59
2023-01-11T14:28:01.629Z,100459.69
2023-01-11T14:30:49.372Z,100456.06
2023-01-11T14:33:53.116Z,100457.66
2023-01-11T14:36:55.780Z,100455.91
2023-01-11T14:40:09.665Z,100452.47
2023-01-11T14:43:24.098Z,100454.19
2023-01-11T14:46:31.527Z,100455.13
2023-01-11T14:49:14.890Z,100459.59
2023-01-11T14:51:57.113Z,100459.53
2023-01-11T14:54:29.633Z,100452.47
2023-01-11T14:56:59.912Z,100452.41
2023-01-11T14:59:40.767Z,100447.09
2023-01-11T15:02:27.294Z,100445.34
2023-01-11T15:05:08.545Z,100440.94
2023-01-11T15:07:44.733Z,100445.38
2023-01-11T15:10:50.757Z,100449.75
2023-01-11T15:13:24.658Z,100439.16
2023-01-11T15:16:25.107Z,100437.44
2023-01-11T15:18:55.844Z,100436.72
2023-01-11T15:21:27.966Z,100426.94
2023-01-11T15:23:59.925Z,100430.38
2023-01-11T15:26:29.429Z,100424.06
2023-01-11T15:29:01.197Z,100416.22
2023-01-11T15:31:39.053Z,100421.41
2023-01-11T15:34:24.788Z,100422.34
2023-01-11T15:37:24.988Z,100417.94
2023-01-11T15:40:00.396Z,100422.41
2023-01-11T15:43:03.539Z,100418.88
2023-01-11T15:46:24.595Z,100415.28
2023-01-11T15:49:30.030Z,100419.72
2023-01-11T15:52:29.656Z,100409.91
2023-01-11T15:55:32.320Z,100408.09
2023-01-11T15:58:24.073Z,100399.38
2023-01-11T16:01:21.547Z,100407.25
2023-01-11T16:04:01.092Z,100409.91
2023-01-11T16:06:44.607Z,100409.97
2023-01-11T16:09:33.037Z,100398.50
2023-01-11T16:12:29.458Z,100396.50
2023-01-11T16:15:27.416Z,100399.16
2023-01-11T16:18:05.862Z,100405.47
2023-01-11T16:20:37.745Z,100407.25
2023-01-11T16:23:08.779Z,100398.28
2023-01-11T16:25:44.742Z,100399.16
2023-01-11T16:28:18.065Z,100400.19
2023-01-11T16:30:48.129Z,100407.31
2023-01-11T16:33:21.645Z,100407.22
2023-01-11T16:35:51.130Z,100401.03
2023-01-11T16:38:23.605Z,100401.81
2023-01-11T16:40:55.672Z,100402.63
2023-01-11T16:43:29.828Z,100400.09
2023-01-11T16:46:00.316Z,100404.34
2023-01-11T16:48:30.949Z,100414.13
2023-01-11T16:51:03.786Z,100406.19
2023-01-11T16:53:34.369Z,100408.72
2023-01-11T16:56:06.692Z,100402.53
2023-01-11T16:58:39.007Z,100407.84
2023-01-11T17:01:10.321Z,100411.28
2023-01-11T17:03:50.057Z,100407.94
2023-01-11T17:06:21.764Z,100407.94
2023-01-11T17:08:52.757Z,100398.97
2023-01-11T17:11:36.452Z,100399.03
2023-01-11T17:14:45.414Z,100400.03
2023-01-11T17:17:16.943Z,100396.44
2023-01-11T17:19:49.183Z,100407.84
2023-01-11T17:22:22.924Z,100405.16
2023-01-11T17:24:56.181Z,100406.00
2023-01-11T17:27:28.997Z,100407.00
2023-01-11T17:30:00.700Z,100407.94
2023-01-11T17:32:39.137Z,100406.09
2023-01-11T17:35:16.089Z,100407.81
2023-01-11T17:37:47.683Z,100406.00
2023-01-11T17:40:25.105Z,100405.28
2023-01-11T17:43:15.245Z,100407.84
2023-01-11T17:45:47.072Z,100406.09
2023-01-11T17:48:20.508Z,100387.44
2023-01-11T17:50:54.588Z,100402.44
2023-01-11T17:53:26.814Z,100406.03
2023-01-11T17:55:57.656Z,100409.59
2023-01-11T17:58:28.374Z,100398.97
2023-01-11T18:01:18.212Z,100401.56
2023-01-11T18:03:50.992Z,100397.19
2023-01-11T18:06:28.283Z,100400.69
2023-01-11T18:08:59.265Z,100392.75
2023-01-11T18:11:31.400Z,100400.72
2023-01-11T18:14:03.662Z,100393.66
2023-01-11T18:16:33.689Z,100396.16
2023-01-11T18:19:25.677Z,100390.88
2023-01-11T18:21:55.700Z,100395.19
2023-01-11T18:24:35.203Z,100392.53
2023-01-11T18:27:16.067Z,100391.72
2023-01-11T18:29:53.887Z,100381.94
2023-01-11T18:32:26.132Z,100384.63
2023-01-11T18:35:01.098Z,100387.28
2023-01-11T18:37:32.645Z,100382.88
2023-01-11T18:40:04.553Z,100396.06
2023-01-11T18:42:37.556Z,100389.00
2023-01-11T18:45:14.792Z,100392.59
2023-01-11T18:47:46.030Z,100393.31
2023-01-11T18:50:20.062Z,100392.38
2023-01-11T18:52:50.154Z,100393.13
2023-01-11T18:55:19.466Z,100394.19
2023-01-11T18:57:51.361Z,100395.13
2023-01-11T19:00:21.081Z,100389.91
2023-01-11T19:02:54.345Z,100393.44
2023-01-11T19:05:24.860Z,100387.13
2023-01-11T19:07:54.279Z,100391.66
2023-01-11T19:10:24.519Z,100391.72
2023-01-11T19:12:54.254Z,100393.53
2023-01-11T19:15:23.437Z,100385.59
2023-01-11T19:17:52.821Z,100391.66
2023-01-11T19:20:23.850Z,100391.72
2023-01-11T19:22:53.344Z,100385.50
2023-01-11T19:25:22.356Z,100387.41
2023-01-11T19:27:54.175Z,100383.03
2023-01-11T19:30:26.597Z,100390.09
2023-01-11T19:32:56.329Z,100386.72
2023-01-11T19:35:26.745Z,100390.25
2023-01-11T19:37:56.193Z,100386.75
2023-01-11T19:40:25.317Z,100392.00
2023-01-11T19:42:56.215Z,100390.25
2023-01-11T19:45:25.183Z,100380.66
2023-01-11T19:47:54.631Z,100378.97
2023-01-11T19:50:26.059Z,100379.91
2023-01-11T19:52:56.202Z,100391.31
2023-01-11T19:55:25.617Z,100377.94
2023-01-11T19:57:54.908Z,100386.78
2023-01-11T20:00:23.998Z,100378.91
2023-01-11T20:02:54.848Z,100381.59
2023-01-11T20:05:25.355Z,100386.09
2023-01-11T20:07:56.015Z,100380.91
2023-01-11T20:10:25.421Z,100384.44
2023-01-11T20:12:54.719Z,100384.44
2023-01-11T20:15:24.578Z,100381.69
2023-01-11T20:17:54.034Z,100389.72
2023-01-11T20:20:23.432Z,100390.75
2023-01-11T20:22:54.374Z,100387.25
2023-01-11T20:25:23.779Z,100380.31
2023-01-11T20:27:53.105Z,100376.81
2023-01-11T20:30:22.383Z,100376.66
2023-01-11T20:32:51.931Z,100366.13
2023-01-11T20:35:21.218Z,100372.22
2023-01-11T20:37:50.824Z,100374.91
2023-01-11T20:40:21.882Z,100374.06
2023-01-11T20:42:52.392Z,100365.22
2023-01-11T20:45:21.401Z,100377.59
2023-01-11T20:47:50.751Z,100373.28
2023-01-11T20:50:20.443Z,100369.75
2023-01-11T20:52:53.013Z,100370.63
2023-01-11T20:55:24.072Z,100368.94
2023-01-11T20:57:55.080Z,100378.63
2023-01-11T21:00:24.933Z,100373.25
2023-01-11T21:02:54.470Z,100380.41
2023-01-11T21:05:23.624Z,100380.34
2023-01-11T21:07:54.570Z,100379.53
2023-01-11T21:10:25.379Z,100378.66
2023-01-11T21:12:56.725Z,100379.59
2023-01-11T21:15:26.397Z,100376.00
2023-01-11T21:17:55.910Z,100379.59
2023-01-11T21:20:25.948Z,100377.81
2023-01-11T21:22:55.199Z,100368.09
2023-01-11T21:25:26.118Z,100367.19
2023-01-11T21:27:59.611Z,100369.84
2023-01-11T21:30:28.882Z,100376.88
2023-01-11T21:32:59.085Z,100373.34
2023-01-11T21:35:28.284Z,100368.94
2023-01-11T21:37:57.902Z,100380.34
2023-01-11T21:40:30.141Z,100376.81
2023-01-11T21:43:00.325Z,100365.34
2023-01-11T21:45:30.042Z,100371.47
2023-01-11T21:47:59.295Z,100368.81
2023-01-11T21:50:28.494Z,100374.94
2023-01-11T21:52:58.055Z,100375.00
2023-01-11T21:55:28.637Z,100379.31
2023-01-11T21:57:58.055Z,100384.63
2023-01-11T22:00:29.537Z,100385.50
2023-01-11T22:02:59.901Z,100388.16
2023-01-11T22:05:29.597Z,100387.25
2023-01-11T22:07:58.918Z,100389.91
2023-01-11T22:10:30.197Z,100387.16
2023-01-11T22:12:59.568Z,100388.09
2023-01-11T22:15:28.581Z,100398.59
2023-01-11T22:17:57.865Z,100398.66
2023-01-11T22:20:26.835Z,100397.78
2023-01-11T22:22:56.749Z,100397.72
2023-01-11T22:25:27.933Z,100392.34
2023-01-11T22:27:57.659Z,100391.47
2023-01-11T22:30:26.701Z,100394.06
2023-01-11T22:32:56.056Z,100390.47
2023-01-11T22:35:25.011Z,100391.38
2023-01-11T22:37:54.508Z,100397.56
2023-01-11T22:40:23.825Z,100401.81
2023-01-11T22:42:54.496Z,100407.84
2023-01-11T22:45:23.954Z,100403.41
2023-01-11T22:47:53.706Z,100399.16
2023-01-11T22:50:22.901Z,100408.00
2023-01-11T22:52:52.827Z,100414.97
2023-01-11T22:55:21.921Z,100414.03
2023-01-11T22:57:51.282Z,100413.13
2023-01-11T23:00:22.411Z,100403.41
2023-01-11T23:02:51.873Z,100402.50
2023-01-11T23:05:21.145Z,100407.84
2023-01-11T23:07:50.713Z,100407.84
2023-01-11T23:10:20.267Z,100412.28
2023-01-11T23:13:09.079Z,100408.81
2023-01-11T23:15:41.566Z,100402.56
2023-01-11T23:18:10.994Z,100398.19
2023-01-11T23:20:39.960Z,100401.69
2023-01-11T23:23:09.529Z,100393.69
2023-01-11T23:25:38.619Z,100396.31
2023-01-11T23:28:08.405Z,100404.28
2023-01-11T23:30:38.043Z,100406.00
2023-01-11T23:33:08.484Z,100397.19
2023-01-11T23:35:39.261Z,100406.75
2023-01-11T23:38:09.009Z,100408.41
2023-01-11T23:40:58.936Z,100404.00
2023-01-11T23:43:27.470Z,100404.00
2023-01-11T23:46:16.547Z,100397.66
2023-01-11T23:48:46.267Z,100399.31
2023-01-11T23:51:15.236Z,100395.03
2023-01-11T23:53:44.654Z,100402.16
2023-01-11T23:56:13.674Z,100406.63
2023-01-11T23:58:43.033Z,100402.00
